createdAt,value
2023-05-04T00:00:46.452Z,75.30
2023-05-04T00:03:13.771Z,75.60
2023-05-04T00:05:40.769Z,74.50
2023-05-04T00:08:08.253Z,74.60
2023-05-04T00:10:35.216Z,75.00
2023-05-04T00:13:03.007Z,75.30
2023-05-04T00:15:30.472Z,75.10
2023-05-04T00:17:57.497Z,75.80
2023-05-04T00:20:24.462Z,75.70
2023-05-04T00:22:51.406Z,75.60
2023-05-04T00:25:18.415Z,75.70
2023-05-04T00:27:45.449Z,75.40
2023-05-04T00:30:12.610Z,76.50
2023-05-04T00:32:39.657Z,76.30
2023-05-04T00:35:08.725Z,76.00
2023-05-04T00:37:36.404Z,77.10
2023-05-04T00:40:03.708Z,75.90
2023-05-04T00:42:30.993Z,76.20
2023-05-04T00:44:57.940Z,76.50
2023-05-04T00:47:25.618Z,77.80
2023-05-04T00:49:52.868Z,77.40
2023-05-04T00:52:21.610Z,77.70
2023-05-04T00:54:48.842Z,77.20
2023-05-04T00:57:17.287Z,77.60
2023-05-04T00:59:44.236Z,77.30
2023-05-04T01:02:11.491Z,78.20
2023-05-04T01:04:38.562Z,77.80
2023-05-04T01:08:00.901Z,78.10
2023-05-04T01:10:39.769Z,78.60
2023-05-04T01:13:13.939Z,79.00
2023-05-04T01:15:43.038Z,78.40
2023-05-04T01:18:10.094Z,78.90
2023-05-04T01:20:37.388Z,78.60
2023-05-04T01:23:04.369Z,79.20
2023-05-04T01:25:39.882Z,78.50
2023-05-04T01:28:20.886Z,78.60
2023-05-04T01:30:55.524Z,80.30
2023-05-04T01:33:23.364Z,79.70
2023-05-04T01:35:50.625Z,80.40
2023-05-04T01:38:18.266Z,80.60
2023-05-04T01:40:45.213Z,79.90
2023-05-04T01:43:12.879Z,79.30
2023-05-04T01:45:39.980Z,79.40
2023-05-04T01:48:07.076Z,81.00
2023-05-04T01:50:34.063Z,79.70
2023-05-04T01:53:02.508Z,79.70
2023-05-04T01:55:30.601Z,80.00
2023-05-04T01:57:57.646Z,80.40
2023-05-04T02:00:24.683Z,82.20
2023-05-04T02:02:51.685Z,82.00
2023-05-04T02:05:20.123Z,81.40
2023-05-04T02:07:49.122Z,82.20
2023-05-04T02:10:16.154Z,81.10
2023-05-04T02:12:43.289Z,81.60
2023-05-04T02:15:11.075Z,82.10
2023-05-04T02:17:38.190Z,82.00
2023-05-04T02:20:06.470Z,83.40
2023-05-04T02:22:33.628Z,82.60
2023-05-04T02:25:00.832Z,84.10
2023-05-04T02:27:27.916Z,82.40
2023-05-04T02:29:54.802Z,83.20
2023-05-04T02:32:21.840Z,84.00
2023-05-04T02:34:50.846Z,83.10
2023-05-04T02:37:18.237Z,83.80
2023-05-04T02:39:45.339Z,84.20
2023-05-04T02:42:12.413Z,83.40
2023-05-04T02:44:39.365Z,83.80
2023-05-04T02:47:06.464Z,84.30
2023-05-04T02:49:33.370Z,83.90
2023-05-04T02:52:00.860Z,84.90
2023-05-04T02:54:27.865Z,85.00
2023-05-04T02:56:54.898Z,83.60
2023-05-04T02:59:21.847Z,85.00
2023-05-04T03:01:48.886Z,84.60
2023-05-04T03:04:16.012Z,84.30
2023-05-04T03:06:42.966Z,85.00
2023-05-04T03:09:09.942Z,84.70
2023-05-04T03:11:36.967Z,85.30
2023-05-04T03:14:04.225Z,85.80
2023-05-04T03:16:31.326Z,85.10
2023-05-04T03:18:58.670Z,85.70
2023-05-04T03:21:25.758Z,86.10
2023-05-04T03:23:53.186Z,86.10
2023-05-04T03:26:21.211Z,87.60
2023-05-04T03:28:48.838Z,86.40
2023-05-04T03:31:15.894Z,88.60
2023-05-04T03:33:43.345Z,88.30
2023-05-04T03:36:10.583Z,87.80
2023-05-04T03:38:39.988Z,88.30
2023-05-04T03:41:06.973Z,87.30
2023-05-04T03:43:34.080Z,87.20
2023-05-04T03:46:01.150Z,89.20
2023-05-04T03:48:28.181Z,88.70
2023-05-04T03:50:55.877Z,88.50
2023-05-04T03:53:23.025Z,90.10
2023-05-04T03:55:50.552Z,89.20
2023-05-04T03:58:17.555Z,88.60
2023-05-04T04:00:44.662Z,89.50
2023-05-04T04:03:15.468Z,88.40
2023-05-04T04:05:42.677Z,90.10
2023-05-04T04:08:09.724Z,88.10
2023-05-04T04:10:36.893Z,89.20
2023-05-04T04:13:03.918Z,89.20
2023-05-04T04:15:31.027Z,89.60
2023-05-04T04:17:58.069Z,90.00
2023-05-04T04:20:25.380Z,90.60
2023-05-04T04:22:52.366Z,90.10
2023-05-04T04:25:19.417Z,90.50
2023-05-04T04:27:46.451Z,90.30
2023-05-04T04:30:13.904Z,91.20
2023-05-04T04:32:41.338Z,90.40
2023-05-04T04:35:08.888Z,90.80
2023-05-04T04:37:35.887Z,90.70
2023-05-04T04:40:04.115Z,90.70
2023-05-04T04:42:32.268Z,90.60
2023-05-04T04:44:59.688Z,91.30
2023-05-04T04:47:26.924Z,91.60
2023-05-04T04:49:54.019Z,90.90
2023-05-04T04:54:50.509Z,90.90
2023-05-04T04:57:18.064Z,90.90
2023-05-04T04:59:46.345Z,91.70
2023-05-04T05:02:13.321Z,91.30
2023-05-04T05:04:41.474Z,91.00
2023-05-04T05:07:08.988Z,90.80
2023-05-04T05:09:36.152Z,91.40
2023-05-04T05:12:03.405Z,90.70
2023-05-04T05:14:31.746Z,90.90
2023-05-04T05:16:59.783Z,90.70
2023-05-04T05:19:27.541Z,90.90
2023-05-04T05:21:54.468Z,90.90
2023-05-04T05:24:21.450Z,90.80
2023-05-04T05:26:48.424Z,91.10
2023-05-04T05:29:15.528Z,91.20
2023-05-04T05:31:42.498Z,91.20
2023-05-04T05:34:09.404Z,91.20
2023-05-04T05:36:36.403Z,90.80
2023-05-04T05:39:04.170Z,90.80
2023-05-04T05:41:31.315Z,90.80
2023-05-04T05:43:58.631Z,91.20
2023-05-04T05:46:25.960Z,90.90
2023-05-04T05:48:53.040Z,91.10
2023-05-04T05:51:20.117Z,90.90
2023-05-04T05:53:47.153Z,90.90
2023-05-04T05:56:14.882Z,90.80
2023-05-04T05:58:41.886Z,90.60
2023-05-04T06:01:09.079Z,91.20
2023-05-04T06:03:36.354Z,90.50
2023-05-04T06:06:03.418Z,91.00
2023-05-04T06:08:31.032Z,90.40
2023-05-04T06:10:58.060Z,90.80
2023-05-04T06:13:24.928Z,90.60
2023-05-04T06:15:55.678Z,90.30
2023-05-04T06:18:22.851Z,90.10
2023-05-04T06:20:49.756Z,90.20
2023-05-04T06:23:16.826Z,90.30
2023-05-04T06:25:43.801Z,89.30
2023-05-04T06:28:10.772Z,89.40
2023-05-04T06:30:37.788Z,89.40
2023-05-04T06:33:04.951Z,89.30
2023-05-04T06:35:32.193Z,88.60
2023-05-04T06:37:59.327Z,88.40
2023-05-04T06:40:26.937Z,88.00
2023-05-04T06:42:54.056Z,88.60
2023-05-04T06:45:21.098Z,87.50
2023-05-04T06:47:48.219Z,88.50
2023-05-04T06:50:15.579Z,87.10
2023-05-04T06:52:44.970Z,86.50
2023-05-04T06:55:12.053Z,87.30
2023-05-04T06:57:39.052Z,85.50
2023-05-04T07:00:08.451Z,86.10
2023-05-04T07:02:35.881Z,85.10
2023-05-04T07:05:04.380Z,84.70
2023-05-04T07:07:31.364Z,84.10
2023-05-04T07:09:58.766Z,84.50
2023-05-04T07:12:26.259Z,83.10
2023-05-04T07:14:53.314Z,82.20
2023-05-04T07:17:22.064Z,82.00
2023-05-04T07:19:52.228Z,82.00
2023-05-04T07:22:20.956Z,82.10
2023-05-04T07:24:47.950Z,82.00
2023-05-04T07:27:15.050Z,81.30
2023-05-04T07:29:42.002Z,81.00
2023-05-04T07:32:10.631Z,80.50
2023-05-04T07:34:44.904Z,80.20
2023-05-04T07:37:13.726Z,80.20
2023-05-04T07:39:41.067Z,79.70
2023-05-04T07:42:08.662Z,79.10
2023-05-04T07:44:35.559Z,78.60
2023-05-04T07:47:03.523Z,78.20
2023-05-04T07:49:30.463Z,77.70
2023-05-04T07:51:57.497Z,76.30
2023-05-04T07:54:25.587Z,76.20
2023-05-04T07:56:52.576Z,75.70
2023-05-04T07:59:19.733Z,75.60
2023-05-04T08:01:47.391Z,74.60
2023-05-04T08:04:14.508Z,75.20
2023-05-04T08:06:41.796Z,74.10
2023-05-04T08:09:09.425Z,73.70
2023-05-04T08:11:37.767Z,73.30
2023-05-04T08:14:04.927Z,74.00
2023-05-04T08:16:32.454Z,72.80
2023-05-04T08:19:01.244Z,72.10
2023-05-04T08:21:28.573Z,71.10
2023-05-04T08:23:55.952Z,70.10
2023-05-04T08:26:23.651Z,69.20
2023-05-04T08:28:50.914Z,68.60
2023-05-04T08:31:18.724Z,68.00
2023-05-04T08:33:49.026Z,67.60
2023-05-04T08:36:16.134Z,66.90
2023-05-04T08:38:43.200Z,66.40
2023-05-04T08:41:11.025Z,65.60
2023-05-04T08:43:38.263Z,64.70
2023-05-04T08:46:07.174Z,64.80
2023-05-04T08:48:34.952Z,64.40
2023-05-04T08:51:06.662Z,64.10
2023-05-04T08:53:37.986Z,63.80
2023-05-04T08:56:09.548Z,63.10
2023-05-04T08:58:48.066Z,63.50
2023-05-04T09:01:18.014Z,62.60
2023-05-04T09:03:47.438Z,62.50
2023-05-04T09:06:15.363Z,61.90
2023-05-04T09:08:42.990Z,61.20
2023-05-04T09:11:10.442Z,61.20
2023-05-04T09:13:37.893Z,60.10
2023-05-04T09:16:05.892Z,59.00
2023-05-04T09:18:41.342Z,59.60
2023-05-04T09:21:10.492Z,59.00
2023-05-04T09:23:51.668Z,58.70
2023-05-04T09:26:32.844Z,57.30
2023-05-04T09:29:14.409Z,56.80
2023-05-04T09:31:51.260Z,57.10
2023-05-04T09:34:22.374Z,56.60
2023-05-04T09:37:03.759Z,56.50
2023-05-04T09:39:30.934Z,55.40
2023-05-04T09:42:00.839Z,55.00
2023-05-04T09:44:29.895Z,55.40
2023-05-04T09:46:59.312Z,54.80
2023-05-04T09:49:39.089Z,54.40
2023-05-04T09:52:07.158Z,54.10
2023-05-04T09:54:36.233Z,55.20
2023-05-04T09:57:13.095Z,54.90
2023-05-04T09:59:41.442Z,54.30
2023-05-04T10:02:22.414Z,54.50
2023-05-04T10:04:58.388Z,54.60
2023-05-04T10:07:29.524Z,53.70
2023-05-04T10:09:59.798Z,54.40
2023-05-04T10:12:26.827Z,54.20
2023-05-04T10:14:54.223Z,53.70
2023-05-04T10:17:50.938Z,53.60
2023-05-04T10:20:30.066Z,52.30
2023-05-04T10:23:22.525Z,52.20
2023-05-04T10:26:22.687Z,51.90
2023-05-04T10:29:23.457Z,50.60
2023-05-04T10:31:53.529Z,50.10
2023-05-04T10:34:34.148Z,51.50
2023-05-04T10:37:04.222Z,50.50
2023-05-04T10:39:35.259Z,50.90
2023-05-04T10:42:07.974Z,50.10
2023-05-04T10:44:53.342Z,49.20
2023-05-04T10:47:40.846Z,49.30
2023-05-04T10:50:14.582Z,49.20
2023-05-04T10:52:50.436Z,49.30
2023-05-04T10:55:19.350Z,48.60
2023-05-04T10:58:04.609Z,49.30
2023-05-04T11:00:40.694Z,47.60
2023-05-04T11:03:08.402Z,46.60
2023-05-04T11:05:46.222Z,46.90
2023-05-04T11:08:24.920Z,46.20
2023-05-04T11:11:09.203Z,46.60
2023-05-04T11:13:48.476Z,46.80
2023-05-04T11:16:27.259Z,47.00
2023-05-04T11:18:55.199Z,46.60
2023-05-04T11:21:26.829Z,46.20
2023-05-04T11:23:58.304Z,45.60
2023-05-04T11:26:26.529Z,45.50
2023-05-04T11:28:53.618Z,46.00
2023-05-04T11:31:21.513Z,45.80
2023-05-04T11:33:51.356Z,45.30
2023-05-04T11:36:19.745Z,45.10
2023-05-04T11:38:47.631Z,44.40
2023-05-04T11:41:14.869Z,44.50
2023-05-04T11:43:45.177Z,44.20
2023-05-04T11:46:13.507Z,43.50
2023-05-04T11:48:41.371Z,43.60
2023-05-04T11:51:08.922Z,43.20
2023-05-04T11:53:42.155Z,43.20
2023-05-04T11:56:09.917Z,43.00
2023-05-04T11:58:37.907Z,42.60
2023-05-04T12:01:05.971Z,42.30
2023-05-04T12:03:51.404Z,42.30
2023-05-04T12:06:33.419Z,42.10
2023-05-04T12:09:06.285Z,41.70
2023-05-04T12:11:35.289Z,42.30
2023-05-04T12:14:17.272Z,42.50
2023-05-04T12:16:57.536Z,41.90
2023-05-04T12:19:24.740Z,41.30
2023-05-04T12:21:54.599Z,41.50
2023-05-04T12:24:23.529Z,41.00
2023-05-04T12:26:51.359Z,41.20
2023-05-04T12:29:18.678Z,40.90
2023-05-04T12:31:45.788Z,40.70
2023-05-04T12:34:12.875Z,40.60
2023-05-04T12:36:39.890Z,40.20
2023-05-04T12:39:07.123Z,40.40
2023-05-04T12:41:34.122Z,39.90
2023-05-04T12:44:01.421Z,40.10
2023-05-04T12:46:28.387Z,40.20
2023-05-04T12:48:55.540Z,39.30
2023-05-04T12:51:22.476Z,39.50
2023-05-04T12:53:49.729Z,39.30
2023-05-04T12:56:16.895Z,39.60
2023-05-04T12:58:43.862Z,39.60
2023-05-04T13:01:11.014Z,39.50
2023-05-04T13:03:39.607Z,39.10
2023-05-04T13:06:07.020Z,39.00
2023-05-04T13:08:34.069Z,38.90
2023-05-04T13:11:01.191Z,38.90
2023-05-04T13:13:29.588Z,39.00
2023-05-04T13:15:57.588Z,39.50
2023-05-04T13:18:27.828Z,38.40
2023-05-04T13:20:57.121Z,38.60
2023-05-04T13:23:24.558Z,38.70
2023-05-04T13:25:52.303Z,38.40
2023-05-04T13:28:19.597Z,37.10
2023-05-04T13:30:46.564Z,38.10
2023-05-04T13:33:28.123Z,38.00
2023-05-04T13:35:58.455Z,38.30
2023-05-04T13:38:25.917Z,38.10
2023-05-04T13:40:52.922Z,38.10
2023-05-04T13:43:21.237Z,37.60
2023-05-04T13:45:48.493Z,37.50
2023-05-04T13:48:15.501Z,37.30
2023-05-04T13:50:42.665Z,37.20
2023-05-04T13:53:12.708Z,37.40
2023-05-04T13:55:39.653Z,37.00
2023-05-04T13:58:06.646Z,37.20
2023-05-04T14:00:33.673Z,37.20
2023-05-04T14:03:00.878Z,38.00
2023-05-04T14:05:28.257Z,36.40
2023-05-04T14:07:55.284Z,36.80
2023-05-04T14:10:22.481Z,36.50
2023-05-04T14:12:49.576Z,36.20
2023-05-04T14:15:17.064Z,35.70
2023-05-04T14:17:44.013Z,35.30
2023-05-04T14:20:11.664Z,35.50
2023-05-04T14:22:41.187Z,35.90
2023-05-04T14:25:09.294Z,35.90
2023-05-04T14:27:36.373Z,35.30
2023-05-04T14:30:05.874Z,35.60
2023-05-04T14:32:33.179Z,35.80
2023-05-04T14:35:08.980Z,35.50
2023-05-04T14:37:38.726Z,35.30
2023-05-04T14:40:08.203Z,35.00
2023-05-04T14:42:36.053Z,34.70
2023-05-04T14:45:04.172Z,34.40
2023-05-04T14:47:31.741Z,34.30
2023-05-04T14:49:58.672Z,34.10
2023-05-04T14:52:26.234Z,33.90
2023-05-04T14:54:53.237Z,34.00
2023-05-04T14:57:20.177Z,33.70
2023-05-04T14:59:47.244Z,34.10
2023-05-04T15:02:14.185Z,34.30
2023-05-04T15:04:41.338Z,34.20
2023-05-04T15:07:08.630Z,34.30
2023-05-04T15:09:35.744Z,34.30
2023-05-04T15:12:03.580Z,34.00
2023-05-04T15:14:30.751Z,34.00
2023-05-04T15:16:57.783Z,34.00
2023-05-04T15:19:24.791Z,34.10
2023-05-04T15:21:52.006Z,34.10
2023-05-04T15:24:19.077Z,33.90
2023-05-04T15:26:46.084Z,33.60
2023-05-04T15:29:13.446Z,33.40
2023-05-04T15:31:40.406Z,33.20
2023-05-04T15:34:07.591Z,33.10
2023-05-04T15:36:34.540Z,32.90
2023-05-04T15:39:01.504Z,32.70
2023-05-04T15:41:29.349Z,32.90
2023-05-04T15:43:56.419Z,33.10
2023-05-04T15:46:23.461Z,33.10
2023-05-04T15:48:50.429Z,33.20
2023-05-04T15:51:18.766Z,33.20
2023-05-04T15:53:45.856Z,33.30
2023-05-04T15:56:15.817Z,33.60
2023-05-04T15:58:45.187Z,33.50
2023-05-04T16:01:14.614Z,33.50
2023-05-04T16:03:43.120Z,33.60
2023-05-04T16:06:11.742Z,33.60
2023-05-04T16:08:39.593Z,33.80
2023-05-04T16:11:08.024Z,34.00
2023-05-04T16:13:35.276Z,34.40
2023-05-04T16:16:02.328Z,34.60
2023-05-04T16:18:29.432Z,34.90
2023-05-04T16:20:56.409Z,35.00
2023-05-04T16:23:23.583Z,35.10
2023-05-04T16:25:50.694Z,35.20
2023-05-04T16:28:17.752Z,35.50
2023-05-04T16:30:45.632Z,35.40
2023-05-04T16:33:13.089Z,35.80
2023-05-04T16:35:40.201Z,35.70
2023-05-04T16:38:07.585Z,35.70
2023-05-04T16:40:34.636Z,34.70
2023-05-04T16:43:01.602Z,34.50
2023-05-04T16:45:31.729Z,34.30
2023-05-04T16:47:59.211Z,34.00
2023-05-04T16:50:26.264Z,33.70
2023-05-04T16:52:57.173Z,34.20
2023-05-04T16:55:29.158Z,34.90
2023-05-04T16:57:59.407Z,33.60
2023-05-04T17:00:26.473Z,33.20
2023-05-04T17:02:53.577Z,33.40
2023-05-04T17:05:21.215Z,33.20
2023-05-04T17:07:48.461Z,32.90
2023-05-04T17:10:15.519Z,33.00
2023-05-04T17:12:43.233Z,32.80
2023-05-04T17:15:11.454Z,32.70
2023-05-04T17:17:38.584Z,32.40
2023-05-04T17:20:09.477Z,32.40
2023-05-04T17:22:37.057Z,32.60
2023-05-04T17:25:04.510Z,32.50
2023-05-04T17:27:31.577Z,32.80
2023-05-04T17:29:58.739Z,32.80
2023-05-04T17:32:25.853Z,32.90
2023-05-04T17:34:53.248Z,33.20
2023-05-04T17:37:20.294Z,33.50
2023-05-04T17:39:47.373Z,33.70
2023-05-04T17:42:16.190Z,34.10
2023-05-04T17:44:44.711Z,34.70
2023-05-04T17:47:11.853Z,34.50
2023-05-04T17:49:39.039Z,34.60
2023-05-04T17:52:06.538Z,34.80
2023-05-04T17:54:33.783Z,35.10
2023-05-04T17:57:00.983Z,35.40
2023-05-04T17:59:28.058Z,35.70
2023-05-04T18:01:55.028Z,35.90
2023-05-04T18:04:22.057Z,36.30
2023-05-04T18:06:50.827Z,36.40
2023-05-04T18:09:19.518Z,36.60
2023-05-04T18:11:47.225Z,36.80
2023-05-04T18:14:14.459Z,37.10
2023-05-04T18:16:41.834Z,37.40
2023-05-04T18:19:09.079Z,37.70
2023-05-04T18:21:37.053Z,38.10
2023-05-04T18:24:06.359Z,38.10
2023-05-04T18:26:33.400Z,38.40
2023-05-04T18:29:11.166Z,38.50
2023-05-04T18:31:44.788Z,38.80
2023-05-04T18:34:11.704Z,39.00
2023-05-04T18:36:39.809Z,39.20
2023-05-04T18:39:08.339Z,39.50
2023-05-04T18:41:35.563Z,40.60
2023-05-04T18:44:15.228Z,39.70
2023-05-04T18:46:42.847Z,39.90
2023-05-04T18:49:09.811Z,40.20
2023-05-04T18:51:36.783Z,40.60
2023-05-04T18:54:04.015Z,40.40
2023-05-04T18:56:30.937Z,40.50
2023-05-04T18:58:57.887Z,40.70
2023-05-04T19:01:25.081Z,40.80
2023-05-04T19:03:52.087Z,41.00
2023-05-04T19:06:19.241Z,41.10
2023-05-04T19:08:46.196Z,41.20
2023-05-04T19:11:13.354Z,41.40
2023-05-04T19:13:41.758Z,41.50
2023-05-04T19:16:12.606Z,41.80
2023-05-04T19:18:39.926Z,42.30
2023-05-04T19:21:07.031Z,42.50
2023-05-04T19:23:34.210Z,42.40
2023-05-04T19:26:01.516Z,42.80
2023-05-04T19:28:31.600Z,42.70
2023-05-04T19:30:59.272Z,42.90
2023-05-04T19:33:36.344Z,42.90
2023-05-04T19:36:12.272Z,43.00
2023-05-04T19:38:39.450Z,43.10
2023-05-04T19:41:06.624Z,43.10
2023-05-04T19:43:35.928Z,43.30
2023-05-04T19:46:03.097Z,43.40
2023-05-04T19:48:30.053Z,43.60
2023-05-04T19:50:57.327Z,43.80
2023-05-04T19:53:25.392Z,44.10
2023-05-04T19:55:52.749Z,44.20
2023-05-04T19:58:19.917Z,44.30
2023-05-04T20:00:48.713Z,44.50
2023-05-04T20:03:17.014Z,44.70
2023-05-04T20:05:47.330Z,44.80
2023-05-04T20:08:14.337Z,44.90
2023-05-04T20:10:47.142Z,45.10
2023-05-04T20:13:15.733Z,45.40
2023-05-04T20:15:42.789Z,45.80
2023-05-04T20:18:09.900Z,45.30
2023-05-04T20:20:37.644Z,45.00
2023-05-04T20:23:05.555Z,45.80
2023-05-04T20:25:33.182Z,46.80
2023-05-04T20:28:01.112Z,45.60
2023-05-04T20:30:29.127Z,46.30
2023-05-04T20:32:57.286Z,46.40
2023-05-04T20:35:24.563Z,46.70
2023-05-04T20:37:51.539Z,46.60
2023-05-04T20:40:18.727Z,46.80
2023-05-04T20:42:45.995Z,46.90
2023-05-04T20:45:13.610Z,47.40
2023-05-04T20:47:40.697Z,47.50
2023-05-04T20:50:10.852Z,47.70
2023-05-04T20:52:38.599Z,48.10
2023-05-04T20:55:07.575Z,48.20
2023-05-04T20:57:35.074Z,48.60
2023-05-04T21:00:02.649Z,48.70
2023-05-04T21:02:29.795Z,49.00
2023-05-04T21:04:56.792Z,49.40
2023-05-04T21:07:24.079Z,49.70
2023-05-04T21:09:56.593Z,50.10
2023-05-04T21:12:24.177Z,50.60
2023-05-04T21:14:51.511Z,51.20
2023-05-04T21:17:18.663Z,51.30
2023-05-04T21:19:46.730Z,51.50
2023-05-04T21:22:17.592Z,51.50
2023-05-04T21:24:46.798Z,51.70
2023-05-04T21:27:14.216Z,51.90
2023-05-04T21:29:41.235Z,52.20
2023-05-04T21:32:08.243Z,52.80
2023-05-04T21:34:35.464Z,52.60
2023-05-04T21:37:03.710Z,53.30
2023-05-04T21:39:31.553Z,53.30
2023-05-04T21:41:58.812Z,53.10
2023-05-04T21:44:25.931Z,54.20
2023-05-04T21:46:53.175Z,54.70
2023-05-04T21:49:20.468Z,55.20
2023-05-04T21:51:47.416Z,55.40
2023-05-04T21:54:14.327Z,55.60
2023-05-04T21:56:42.253Z,55.80
2023-05-04T21:59:09.271Z,55.90
2023-05-04T22:01:36.246Z,56.10
2023-05-04T22:04:07.168Z,56.20
2023-05-04T22:06:34.478Z,56.80
2023-05-04T22:09:01.594Z,56.70
2023-05-04T22:11:28.672Z,57.40
2023-05-04T22:13:55.824Z,56.80
2023-05-04T22:16:22.889Z,57.00
2023-05-04T22:18:49.813Z,57.40
2023-05-04T22:21:16.896Z,57.10
2023-05-04T22:23:43.852Z,57.40
2023-05-04T22:26:10.851Z,57.70
2023-05-04T22:28:37.932Z,57.80
2023-05-04T22:31:04.941Z,58.40
2023-05-04T22:33:32.061Z,58.00
2023-05-04T22:35:59.000Z,57.80
2023-05-04T22:38:26.085Z,58.20
2023-05-04T22:40:53.391Z,58.40
2023-05-04T22:43:23.596Z,58.80
2023-05-04T22:45:50.545Z,60.20
2023-05-04T22:48:19.903Z,59.40
2023-05-04T22:50:48.537Z,59.20
2023-05-04T22:53:15.683Z,59.90
2023-05-04T22:55:42.849Z,59.40
2023-05-04T22:58:09.782Z,59.80
2023-05-04T23:00:37.108Z,60.30
2023-05-04T23:03:04.195Z,61.30
2023-05-04T23:05:31.286Z,61.60
2023-05-04T23:07:58.247Z,62.20
2023-05-04T23:10:25.211Z,63.20
2023-05-04T23:12:52.245Z,63.50
2023-05-04T23:15:20.533Z,64.10
2023-05-04T23:17:47.674Z,64.40
2023-05-04T23:20:16.821Z,65.50
2023-05-04T23:22:43.862Z,65.30
2023-05-04T23:25:10.981Z,65.40
2023-05-04T23:27:38.026Z,65.70
2023-05-04T23:30:06.546Z,65.80
2023-05-04T23:32:33.718Z,66.50
2023-05-04T23:35:00.793Z,66.30
2023-05-04T23:37:33.441Z,66.90
2023-05-04T23:40:01.142Z,67.10
2023-05-04T23:42:28.031Z,67.10
2023-05-04T23:44:58.079Z,67.70
2023-05-04T23:47:25.154Z,67.80
2023-05-04T23:49:52.143Z,67.60
2023-05-04T23:52:19.115Z,68.10
2023-05-04T23:54:46.619Z,68.70
2023-05-04T23:57:13.684Z,69.60
2023-05-04T23:59:42.003Z,68.70
